createdAt,value
2019-02-05T00:01:36.809Z,88.73
2019-02-05T00:04:06.785Z,88.59
2019-02-05T00:06:36.263Z,88.78
2019-02-05T00:09:09.550Z,88.42
2019-02-05T00:11:38.894Z,88.43
2019-02-05T00:14:08.349Z,88.66
2019-02-05T00:16:37.791Z,88.79
2019-02-05T00:19:07.146Z,88.60
2019-02-05T00:21:36.585Z,88.81
2019-02-05T00:24:06.138Z,88.40
2019-02-05T00:26:35.505Z,88.42
2019-02-05T00:29:04.960Z,88.56
2019-02-05T00:31:34.692Z,88.13
2019-02-05T00:34:04.359Z,87.55
2019-02-05T00:36:33.690Z,87.78
2019-02-05T00:39:04.291Z,87.70
2019-02-05T00:41:33.648Z,87.88
2019-02-05T00:44:02.995Z,87.62
2019-02-05T00:46:32.632Z,87.65
2019-02-05T00:49:01.962Z,87.16
2019-02-05T00:51:31.291Z,87.08
2019-02-05T00:54:00.685Z,87.24
2019-02-05T00:56:30.101Z,87.17
2019-02-05T00:58:59.457Z,86.83
2019-02-05T01:01:29.098Z,86.68
2019-02-05T01:03:58.453Z,86.73
2019-02-05T01:06:27.794Z,86.98
2019-02-05T01:08:57.147Z,85.90
2019-02-05T01:11:26.476Z,86.47
2019-02-05T01:13:55.892Z,86.77
2019-02-05T01:16:25.217Z,87.29
2019-02-05T01:18:54.553Z,86.84
2019-02-05T01:21:23.870Z,87.46
2019-02-05T01:23:53.231Z,87.02
2019-02-05T01:26:29.500Z,86.08
2019-02-05T01:28:53.690Z,86.15
2019-02-05T01:31:23.051Z,86.10
2019-02-05T01:33:52.375Z,86.20
2019-02-05T01:36:21.712Z,86.11
2019-02-05T01:38:51.035Z,86.16
2019-02-05T01:41:20.451Z,86.47
2019-02-05T01:43:50.365Z,86.36
2019-02-05T01:46:19.740Z,86.17
2019-02-05T01:48:49.113Z,86.38
2019-02-05T01:51:18.482Z,86.18
2019-02-05T01:53:47.820Z,86.59
2019-02-05T01:56:17.179Z,86.33
2019-02-05T01:58:46.834Z,86.63
2019-02-05T02:01:16.203Z,86.97
2019-02-05T02:03:45.693Z,86.67
2019-02-05T02:06:15.038Z,86.76
2019-02-05T02:08:44.372Z,87.30
2019-02-05T02:11:13.689Z,87.04
2019-02-05T02:13:43.310Z,86.65
2019-02-05T02:16:12.748Z,86.87
2019-02-05T02:18:42.094Z,86.45
2019-02-05T02:21:11.449Z,86.47
2019-02-05T02:23:40.802Z,85.21
2019-02-05T02:26:10.155Z,85.11
2019-02-05T02:28:39.901Z,85.46
2019-02-05T02:31:09.226Z,85.61
2019-02-05T02:33:38.673Z,85.33
2019-02-05T02:36:08.031Z,85.69
2019-02-05T02:38:37.363Z,84.94
2019-02-05T02:41:06.738Z,84.46
2019-02-05T02:43:36.448Z,84.61
2019-02-05T02:46:06.090Z,84.56
2019-02-05T02:48:35.435Z,84.63
2019-02-05T02:51:04.779Z,84.91
2019-02-05T02:53:34.090Z,85.55
2019-02-05T02:56:03.439Z,85.65
2019-02-05T02:58:33.169Z,85.64
2019-02-05T03:01:02.524Z,85.89
2019-02-05T03:03:31.879Z,86.75
2019-02-05T03:06:01.239Z,86.74
2019-02-05T03:08:30.588Z,86.29
2019-02-05T03:10:59.928Z,85.75
2019-02-05T03:13:29.282Z,86.44
2019-02-05T03:15:58.625Z,86.78
2019-02-05T03:18:27.951Z,87.06
2019-02-05T03:20:57.314Z,86.70
2019-02-05T03:23:26.692Z,86.88
2019-02-05T03:25:56.033Z,86.86
2019-02-05T03:28:25.368Z,85.89
2019-02-05T03:30:54.721Z,85.38
2019-02-05T03:33:24.648Z,85.78
2019-02-05T03:35:53.952Z,86.42
2019-02-05T03:38:23.285Z,86.75
2019-02-05T03:41:17.533Z,87.43
2019-02-05T03:43:47.251Z,86.15
2019-02-05T03:46:17.915Z,85.84
2019-02-05T03:48:49.055Z,86.69
2019-02-05T03:51:56.969Z,86.46
2019-02-05T03:55:22.049Z,86.25
2019-02-05T03:58:42.128Z,86.30
2019-02-05T04:01:48.132Z,87.17
2019-02-05T04:05:08.988Z,87.62
2019-02-05T04:08:18.411Z,87.50
2019-02-05T04:11:36.066Z,87.90
2019-02-05T04:14:46.385Z,87.98
2019-02-05T04:17:37.049Z,87.79
2019-02-05T04:20:51.952Z,87.86
2019-02-05T04:24:06.996Z,88.13
2019-02-05T04:27:22.067Z,88.22
2019-02-05T04:30:32.367Z,88.60
2019-02-05T04:33:45.546Z,87.45
2019-02-05T04:37:08.899Z,87.25
2019-02-05T04:40:06.772Z,87.07
2019-02-05T04:43:05.661Z,87.01
2019-02-05T04:46:03.996Z,87.71
2019-02-05T04:49:20.213Z,88.06
2019-02-05T04:52:22.537Z,88.60
2019-02-05T04:55:17.799Z,89.17
2019-02-05T04:58:07.860Z,89.50
2019-02-05T05:00:56.729Z,89.20
2019-02-05T05:03:59.196Z,89.00
2019-02-05T05:07:19.368Z,89.88
2019-02-05T05:09:50.671Z,90.57
2019-02-05T05:12:20.122Z,90.34
2019-02-05T05:14:49.632Z,90.57
2019-02-05T05:17:19.081Z,90.04
2019-02-05T05:19:48.544Z,89.55
2019-02-05T05:22:18.035Z,89.81
2019-02-05T05:24:47.866Z,90.11
2019-02-05T05:27:19.303Z,89.91
2019-02-05T05:29:48.899Z,89.85
2019-02-05T05:32:18.869Z,89.56
2019-02-05T05:34:48.288Z,89.22
2019-02-05T05:37:15.883Z,89.15
2019-02-05T05:39:45.281Z,88.65
2019-02-05T05:42:14.711Z,88.11
2019-02-05T05:44:44.450Z,88.53
2019-02-05T05:47:13.798Z,88.61
2019-02-05T05:49:43.259Z,88.82
2019-02-05T05:52:12.594Z,88.46
2019-02-05T05:54:41.985Z,88.19
2019-02-05T05:57:11.307Z,88.27
2019-02-05T05:59:40.662Z,88.46
2019-02-05T06:02:10.032Z,88.74
2019-02-05T06:04:39.409Z,89.43
2019-02-05T06:07:09.149Z,89.99
2019-02-05T06:09:38.934Z,90.23
2019-02-05T06:12:08.302Z,90.04
2019-02-05T06:14:37.677Z,90.31
2019-02-05T06:17:07.276Z,90.57
2019-02-05T06:19:36.643Z,90.21
2019-02-05T06:22:05.946Z,90.31
2019-02-05T06:24:35.280Z,90.03
2019-02-05T06:27:04.742Z,90.27
2019-02-05T06:29:34.123Z,90.55
2019-02-05T06:32:03.840Z,89.97
2019-02-05T06:34:33.208Z,89.50
2019-02-05T06:37:02.617Z,90.00
2019-02-05T06:39:32.143Z,89.14
2019-02-05T06:42:01.560Z,89.37
2019-02-05T06:44:30.925Z,88.38
2019-02-05T06:47:00.476Z,88.56
2019-02-05T06:49:29.833Z,88.61
2019-02-05T06:51:59.203Z,88.92
2019-02-05T06:54:28.792Z,88.90
2019-02-05T06:56:58.173Z,87.87
2019-02-05T06:59:27.902Z,87.59
2019-02-05T07:01:57.245Z,87.49
2019-02-05T07:04:26.876Z,87.43
2019-02-05T07:06:56.273Z,86.83
2019-02-05T07:09:25.668Z,86.73
2019-02-05T07:11:55.034Z,87.12
2019-02-05T07:14:24.385Z,87.47
2019-02-05T07:16:53.723Z,87.37
2019-02-05T07:19:23.114Z,87.34
2019-02-05T07:21:52.908Z,87.88
2019-02-05T07:24:22.536Z,87.90
2019-02-05T07:26:51.890Z,87.77
2019-02-05T07:29:21.317Z,87.27
2019-02-05T07:31:50.706Z,88.45
2019-02-05T07:34:21.394Z,86.96
2019-02-05T07:36:51.305Z,84.54
2019-02-05T07:39:20.671Z,84.74
2019-02-05T07:41:50.041Z,85.32
2019-02-05T07:44:19.417Z,86.16
2019-02-05T07:46:48.833Z,86.04
2019-02-05T07:49:18.408Z,86.55
2019-02-05T07:51:47.835Z,86.65
2019-02-05T07:54:17.453Z,87.31
2019-02-05T07:56:46.980Z,87.09
2019-02-05T07:59:16.322Z,86.95
2019-02-05T08:01:45.820Z,86.84
2019-02-05T08:04:15.185Z,86.96
2019-02-05T08:06:45.082Z,86.99
2019-02-05T08:09:14.445Z,86.87
2019-02-05T08:11:43.911Z,86.91
2019-02-05T08:14:13.786Z,86.89
2019-02-05T08:16:43.138Z,86.70
2019-02-05T08:19:12.519Z,86.60
2019-02-05T08:21:41.884Z,86.98
2019-02-05T08:24:11.225Z,86.56
2019-02-05T08:26:40.614Z,85.69
2019-02-05T08:29:21.153Z,85.86
2019-02-05T08:31:41.486Z,85.77
2019-02-05T08:34:11.154Z,85.58
2019-02-05T08:36:40.626Z,85.32
2019-02-05T08:39:10.974Z,85.20
2019-02-05T08:41:40.386Z,84.92
2019-02-05T08:44:10.011Z,85.04
2019-02-05T08:46:39.577Z,85.64
2019-02-05T08:49:08.880Z,86.13
2019-02-05T08:51:38.391Z,85.37
2019-02-05T08:54:07.735Z,85.17
2019-02-05T08:56:37.130Z,84.86
2019-02-05T08:59:06.855Z,85.05
2019-02-05T09:01:36.490Z,84.79
2019-02-05T09:04:05.955Z,85.03
2019-02-05T09:06:35.557Z,84.65
2019-02-05T09:09:08.288Z,84.90
2019-02-05T09:11:37.687Z,84.62
2019-02-05T09:14:11.183Z,83.96
2019-02-05T09:16:38.105Z,83.83
2019-02-05T09:19:07.561Z,83.84
2019-02-05T09:21:36.918Z,83.65
2019-02-05T09:24:06.401Z,83.06
2019-02-05T09:26:35.777Z,82.73
2019-02-05T09:29:05.111Z,81.77
2019-02-05T09:31:34.518Z,81.63
2019-02-05T09:34:04.091Z,81.30
2019-02-05T09:36:33.419Z,81.37
2019-02-05T09:39:03.101Z,81.61
2019-02-05T09:41:32.539Z,81.86
2019-02-05T09:44:02.124Z,81.75
2019-02-05T09:46:31.458Z,81.29
2019-02-05T09:49:00.983Z,81.59
2019-02-05T09:51:30.472Z,81.69
2019-02-05T09:53:59.796Z,81.50
2019-02-05T09:56:29.133Z,80.70
2019-02-05T09:58:58.551Z,80.88
2019-02-05T10:01:27.897Z,80.55
2019-02-05T10:03:57.248Z,80.53
2019-02-05T10:06:26.947Z,80.54
2019-02-05T10:08:56.434Z,80.66
2019-02-05T10:11:25.774Z,80.29
2019-02-05T10:13:55.227Z,80.03
2019-02-05T10:16:24.700Z,80.35
2019-02-05T10:18:54.142Z,80.48
2019-02-05T10:21:23.583Z,80.00
2019-02-05T10:23:53.322Z,79.75
2019-02-05T10:26:23.149Z,79.23
2019-02-05T10:28:52.603Z,78.06
2019-02-05T10:31:21.994Z,77.65
2019-02-05T10:33:55.399Z,77.97
2019-02-05T10:36:22.887Z,77.21
2019-02-05T10:38:52.566Z,77.22
2019-02-05T10:41:22.049Z,77.72
2019-02-05T10:43:51.408Z,77.13
2019-02-05T10:46:20.812Z,75.89
2019-02-05T10:48:50.219Z,74.73
2019-02-05T10:51:19.684Z,73.05
2019-02-05T10:53:49.422Z,71.41
2019-02-05T10:56:18.776Z,69.10
2019-02-05T10:58:50.669Z,67.85
2019-02-05T11:01:20.061Z,67.49
2019-02-05T11:03:50.912Z,66.62
2019-02-05T11:06:20.700Z,64.71
2019-02-05T11:08:50.398Z,64.44
2019-02-05T11:11:19.880Z,63.73
2019-02-05T11:13:49.284Z,63.07
2019-02-05T11:16:28.113Z,62.75
2019-02-05T11:19:10.984Z,63.26
2019-02-05T11:21:41.644Z,63.86
2019-02-05T11:24:18.622Z,62.59
2019-02-05T11:26:52.763Z,61.57
2019-02-05T11:29:26.924Z,61.54
2019-02-05T11:31:58.107Z,60.65
2019-02-05T11:34:27.565Z,61.31
2019-02-05T11:36:56.981Z,62.34
2019-02-05T11:39:26.455Z,61.86
2019-02-05T11:41:56.229Z,62.85
2019-02-05T11:44:27.136Z,62.17
2019-02-05T11:46:56.621Z,62.42
2019-02-05T11:49:27.425Z,62.10
2019-02-05T11:51:56.787Z,61.93
2019-02-05T11:54:26.219Z,62.06
2019-02-05T11:56:55.545Z,61.26
2019-02-05T11:59:24.912Z,61.78
2019-02-05T12:01:54.334Z,62.10
2019-02-05T12:04:23.703Z,61.58
2019-02-05T12:06:53.050Z,60.02
2019-02-05T12:09:25.109Z,59.60
2019-02-05T12:11:54.510Z,58.91
2019-02-05T12:14:23.905Z,59.26
2019-02-05T12:16:53.472Z,58.89
2019-02-05T12:19:22.867Z,58.93
2019-02-05T12:21:52.720Z,59.28
2019-02-05T12:24:22.078Z,58.96
2019-02-05T12:26:51.389Z,58.42
2019-02-05T12:29:20.733Z,59.00
2019-02-05T12:31:50.223Z,59.36
2019-02-05T12:34:19.613Z,58.62
2019-02-05T12:36:49.420Z,58.70
2019-02-05T12:39:21.657Z,58.41
2019-02-05T12:41:51.020Z,58.28
2019-02-05T12:44:20.389Z,57.83
2019-02-05T12:46:50.001Z,57.29
2019-02-05T12:49:19.383Z,56.67
2019-02-05T12:51:48.911Z,56.78
2019-02-05T12:54:18.229Z,56.95
2019-02-05T12:56:47.572Z,56.96
2019-02-05T12:59:16.926Z,58.07
2019-02-05T13:01:46.275Z,57.05
2019-02-05T13:04:15.725Z,56.55
2019-02-05T13:06:45.168Z,56.75
2019-02-05T13:09:14.739Z,56.33
2019-02-05T13:11:45.174Z,56.83
2019-02-05T13:14:14.691Z,56.15
2019-02-05T13:16:44.047Z,56.42
2019-02-05T13:19:13.404Z,56.44
2019-02-05T13:21:42.739Z,56.97
2019-02-05T13:24:12.301Z,56.67
2019-02-05T13:26:42.617Z,57.60
2019-02-05T13:30:42.503Z,57.55
2019-02-05T13:33:13.313Z,57.37
2019-02-05T13:35:42.933Z,57.68
2019-02-05T13:38:12.304Z,57.69
2019-02-05T13:40:41.703Z,58.04
2019-02-05T13:43:11.258Z,57.89
2019-02-05T13:45:42.047Z,57.33
2019-02-05T13:48:11.712Z,58.02
2019-02-05T13:50:41.220Z,59.03
2019-02-05T13:53:10.835Z,59.45
2019-02-05T13:55:42.619Z,59.68
2019-02-05T13:58:12.755Z,58.92
2019-02-05T14:00:53.287Z,59.30
2019-02-05T14:03:22.983Z,59.89
2019-02-05T14:05:52.400Z,60.03
2019-02-05T14:08:21.804Z,59.95
2019-02-05T14:10:53.789Z,60.23
2019-02-05T14:13:23.198Z,61.07
2019-02-05T14:15:54.052Z,62.64
2019-02-05T14:18:23.431Z,63.06
2019-02-05T14:20:52.961Z,63.79
2019-02-05T14:23:22.384Z,64.39
2019-02-05T14:25:51.808Z,64.37
2019-02-05T14:28:21.322Z,65.39
2019-02-05T14:30:55.689Z,65.39
2019-02-05T14:33:26.634Z,65.89
2019-02-05T14:35:56.110Z,66.59
2019-02-05T14:38:26.112Z,67.37
2019-02-05T14:40:55.629Z,67.97
2019-02-05T14:43:25.667Z,68.55
2019-02-05T14:45:55.142Z,69.19
2019-02-05T14:48:24.552Z,69.68
2019-02-05T14:50:54.040Z,70.86
2019-02-05T14:53:23.423Z,71.01
2019-02-05T14:55:52.783Z,71.33
2019-02-05T14:58:22.704Z,71.30
2019-02-05T15:00:52.095Z,71.66
2019-02-05T15:03:21.756Z,72.22
2019-02-05T15:05:51.123Z,72.72
2019-02-05T15:08:20.900Z,73.12
2019-02-05T15:10:50.665Z,73.18
2019-02-05T15:13:20.030Z,73.73
2019-02-05T15:15:52.586Z,74.26
2019-02-05T15:18:25.018Z,74.72
2019-02-05T15:21:00.682Z,74.91
2019-02-05T15:23:30.024Z,74.95
2019-02-05T15:25:59.402Z,75.35
2019-02-05T15:28:28.782Z,75.27
2019-02-05T15:30:58.111Z,75.65
2019-02-05T15:33:36.499Z,75.94
2019-02-05T15:36:22.073Z,76.40
2019-02-05T15:38:51.545Z,76.44
2019-02-05T15:41:20.935Z,76.43
2019-02-05T15:43:50.265Z,76.66
2019-02-05T15:46:19.901Z,77.28
2019-02-05T15:48:50.904Z,77.73
2019-02-05T15:51:22.721Z,78.10
2019-02-05T15:53:52.141Z,78.59
2019-02-05T15:56:21.504Z,78.94
2019-02-05T15:58:50.847Z,79.07
2019-02-05T16:01:20.299Z,79.05
2019-02-05T16:03:49.710Z,79.22
2019-02-05T16:06:19.086Z,79.16
2019-02-05T16:08:48.524Z,79.34
2019-02-05T16:11:17.957Z,79.82
2019-02-05T16:13:47.364Z,80.48
2019-02-05T16:16:16.797Z,80.46
2019-02-05T16:18:46.448Z,80.69
2019-02-05T16:21:15.808Z,81.17
2019-02-05T16:23:45.166Z,81.21
2019-02-05T16:26:14.579Z,81.52
2019-02-05T16:28:43.923Z,81.59
2019-02-05T16:31:13.322Z,81.43
2019-02-05T16:33:43.061Z,81.85
2019-02-05T16:36:12.477Z,81.57
2019-02-05T16:38:41.895Z,81.53
2019-02-05T16:41:11.251Z,81.59
2019-02-05T16:43:40.590Z,81.78
2019-02-05T16:46:09.962Z,81.95
2019-02-05T16:48:39.590Z,81.97
2019-02-05T16:51:09.030Z,82.00
2019-02-05T16:53:38.372Z,82.15
2019-02-05T16:56:07.697Z,82.32
2019-02-05T16:58:37.111Z,82.40
2019-02-05T17:01:06.566Z,82.79
2019-02-05T17:03:36.381Z,82.62
2019-02-05T17:06:06.063Z,82.88
2019-02-05T17:08:35.556Z,82.92
2019-02-05T17:11:04.908Z,82.87
2019-02-05T17:13:34.288Z,82.43
2019-02-05T17:16:03.619Z,82.26
2019-02-05T17:18:33.370Z,82.29
2019-02-05T17:21:04.602Z,82.20
2019-02-05T17:23:33.952Z,82.58
2019-02-05T17:26:03.322Z,82.80
2019-02-05T17:28:32.800Z,82.96
2019-02-05T17:31:02.165Z,82.96
2019-02-05T17:33:31.655Z,83.07
2019-02-05T17:36:01.025Z,83.15
2019-02-05T17:38:30.371Z,83.27
2019-02-05T17:40:59.722Z,82.96
2019-02-05T17:43:29.101Z,82.61
2019-02-05T17:45:59.552Z,82.62
2019-02-05T17:48:28.999Z,82.79
2019-02-05T17:50:58.314Z,82.97
2019-02-05T17:53:27.638Z,83.23
2019-02-05T17:55:56.991Z,83.31
2019-02-05T17:58:26.451Z,83.31
2019-02-05T18:01:00.341Z,83.30
2019-02-05T18:03:29.837Z,83.25
2019-02-05T18:05:59.239Z,82.96
2019-02-05T18:08:28.778Z,82.79
2019-02-05T18:11:00.273Z,83.04
2019-02-05T18:13:38.792Z,83.31
2019-02-05T18:16:12.538Z,83.23
2019-02-05T18:18:41.930Z,83.08
2019-02-05T18:21:12.867Z,83.02
2019-02-05T18:23:42.214Z,82.75
2019-02-05T18:26:30.721Z,82.17
2019-02-05T18:29:00.414Z,81.81
2019-02-05T18:31:29.751Z,81.56
2019-02-05T18:33:59.106Z,81.49
2019-02-05T18:36:28.540Z,81.53
2019-02-05T18:38:58.288Z,81.10
2019-02-05T18:41:27.685Z,81.01
2019-02-05T18:43:57.174Z,80.75
2019-02-05T18:46:26.623Z,80.96
2019-02-05T18:49:04.587Z,80.98
2019-02-05T18:51:43.103Z,80.80
2019-02-05T18:54:13.922Z,81.07
2019-02-05T18:56:43.371Z,81.20
2019-02-05T18:59:12.864Z,81.39
2019-02-05T19:01:42.558Z,81.26
2019-02-05T19:04:12.174Z,81.38
2019-02-05T19:06:41.552Z,81.82
2019-02-05T19:09:14.154Z,81.68
2019-02-05T19:11:43.511Z,81.47
2019-02-05T19:14:12.885Z,81.42
2019-02-05T19:16:42.229Z,81.52
2019-02-05T19:19:15.234Z,81.43
2019-02-05T19:21:43.008Z,81.41
2019-02-05T19:24:31.618Z,81.19
2019-02-05T19:27:01.138Z,81.39
2019-02-05T19:29:30.802Z,81.19
2019-02-05T19:32:00.346Z,80.73
2019-02-05T19:34:30.154Z,80.66
2019-02-05T19:36:59.539Z,80.68
2019-02-05T19:39:28.970Z,80.59
2019-02-05T19:41:58.358Z,80.54
2019-02-05T19:44:27.992Z,81.25
2019-02-05T19:47:14.496Z,86.73
2019-02-05T19:49:47.366Z,82.75
2019-02-05T19:52:16.716Z,76.66
2019-02-05T19:54:46.083Z,75.52
2019-02-05T19:57:15.415Z,74.90
2019-02-05T19:59:45.183Z,75.01
2019-02-05T20:02:14.495Z,75.05
2019-02-05T20:04:43.866Z,73.44
2019-02-05T20:07:13.576Z,71.57
2019-02-05T20:09:42.917Z,72.43
2019-02-05T20:12:12.238Z,73.58
2019-02-05T20:14:41.956Z,73.35
2019-02-05T20:17:11.383Z,72.22
2019-02-05T20:19:40.774Z,70.92
2019-02-05T20:22:10.229Z,72.68
2019-02-05T20:24:39.585Z,73.78
2019-02-05T20:27:10.253Z,73.29
2019-02-05T20:29:39.666Z,72.94
2019-02-05T20:32:11.428Z,73.01
2019-02-05T20:34:40.771Z,71.00
2019-02-05T20:37:10.147Z,71.58
2019-02-05T20:39:39.499Z,72.94
2019-02-05T20:42:09.742Z,74.25
2019-02-05T20:44:39.149Z,75.58
2019-02-05T20:47:08.790Z,76.48
2019-02-05T20:49:38.132Z,76.71
2019-02-05T20:52:07.598Z,77.37
2019-02-05T20:54:37.074Z,77.69
2019-02-05T20:57:06.401Z,77.94
2019-02-05T20:59:35.781Z,78.02
2019-02-05T21:02:05.206Z,78.52
2019-02-05T21:04:35.503Z,78.81
2019-02-05T21:07:05.417Z,79.06
2019-02-05T21:09:34.773Z,78.94
2019-02-05T21:12:04.291Z,79.03
2019-02-05T21:14:33.665Z,79.17
2019-02-05T21:17:03.083Z,79.41
2019-02-05T21:19:32.780Z,79.82
2019-02-05T21:22:02.386Z,80.35
2019-02-05T21:24:31.990Z,80.85
2019-02-05T21:27:01.880Z,80.20
2019-02-05T21:29:32.711Z,80.32
2019-02-05T21:32:02.020Z,80.57
2019-02-05T21:34:36.175Z,80.39
2019-02-05T21:37:05.625Z,80.42
2019-02-05T21:39:34.929Z,80.41
2019-02-05T21:42:04.439Z,80.56
2019-02-05T21:44:33.805Z,80.41
2019-02-05T21:47:03.131Z,80.41
2019-02-05T21:49:32.741Z,80.78
2019-02-05T21:52:02.072Z,81.55
2019-02-05T21:54:31.435Z,82.33
2019-02-05T21:57:00.760Z,82.28
2019-02-05T21:59:30.095Z,82.16
2019-02-05T22:01:59.775Z,82.02
2019-02-05T22:04:29.145Z,82.21
2019-02-05T22:06:58.624Z,82.09
2019-02-05T22:09:28.168Z,82.12
2019-02-05T22:11:57.555Z,81.75
2019-02-05T22:14:26.970Z,82.05
2019-02-05T22:16:56.338Z,81.53
2019-02-05T22:19:26.875Z,81.45
2019-02-05T22:21:56.279Z,81.08
2019-02-05T22:24:25.662Z,80.74
2019-02-05T22:26:55.085Z,81.00
2019-02-05T22:29:24.397Z,80.54
2019-02-05T22:31:53.787Z,79.85
2019-02-05T22:34:23.897Z,80.10
2019-02-05T22:36:53.232Z,80.32
2019-02-05T22:39:25.164Z,79.91
2019-02-05T22:41:53.949Z,79.50
2019-02-05T22:44:23.325Z,79.09
2019-02-05T22:46:53.043Z,79.19
2019-02-05T22:49:22.388Z,79.20
2019-02-05T22:51:52.004Z,79.65
2019-02-05T22:54:21.351Z,80.16
2019-02-05T22:56:50.860Z,80.40
2019-02-05T22:59:20.482Z,80.79
2019-02-05T23:01:58.713Z,80.26
2019-02-05T23:05:09.189Z,80.30
2019-02-05T23:07:38.522Z,80.45
2019-02-05T23:10:38.719Z,80.29
2019-02-05T23:13:14.791Z,80.53
2019-02-05T23:15:46.662Z,80.72
2019-02-05T23:18:16.196Z,81.21
2019-02-05T23:20:45.632Z,81.28
2019-02-05T23:23:15.027Z,81.04
2019-02-05T23:25:44.475Z,81.26
2019-02-05T23:28:13.931Z,81.37
2019-02-05T23:30:43.793Z,81.36
2019-02-05T23:33:13.456Z,81.38
2019-02-05T23:35:42.868Z,81.56
2019-02-05T23:38:12.307Z,82.07
2019-02-05T23:40:41.714Z,82.05
2019-02-05T23:43:11.088Z,82.19
2019-02-05T23:45:40.418Z,82.45
2019-02-05T23:48:10.071Z,82.46
2019-02-05T23:50:39.432Z,82.24
2019-02-05T23:53:08.833Z,82.54
2019-02-05T23:55:38.172Z,82.39
2019-02-05T23:58:07.525Z,82.34
